createdAt,value
2023-02-16T00:00:07.357Z,110.20
2023-02-16T00:01:07.324Z,118.00
2023-02-16T00:02:07.325Z,116.50
2023-02-16T00:03:07.326Z,119.60
2023-02-16T00:04:28.282Z,121.80
2023-02-16T00:05:07.271Z,117.40
2023-02-16T00:06:07.252Z,113.70
2023-02-16T00:07:07.240Z,118.20
2023-02-16T00:08:07.229Z,116.20
2023-02-16T00:09:07.216Z,114.80
2023-02-16T00:10:28.205Z,130.70
2023-02-16T00:11:07.203Z,133.60
2023-02-16T00:12:07.190Z,140.90
2023-02-16T00:13:07.159Z,221.30
2023-02-16T00:14:07.151Z,181.00
2023-02-16T00:15:07.133Z,316.80
2023-02-16T00:16:28.127Z,344.50
2023-02-16T00:17:07.138Z,357.90
2023-02-16T00:18:07.092Z,265.00
2023-02-16T00:19:07.075Z,387.40
2023-02-16T00:20:07.074Z,335.90
2023-02-16T00:21:07.057Z,272.80
2023-02-16T00:22:28.042Z,285.70
2023-02-16T00:23:07.019Z,254.10
2023-02-16T00:24:07.094Z,200.40
2023-02-16T00:25:06.995Z,203.70
2023-02-16T00:26:06.986Z,194.40
2023-02-16T00:27:06.972Z,206.80
2023-02-16T00:28:27.976Z,266.10
2023-02-16T00:29:06.952Z,318.00
2023-02-16T00:30:07.007Z,329.80
2023-02-16T00:31:07.323Z,388.10
2023-02-16T00:32:07.080Z,459.70
2023-02-16T00:33:06.896Z,520.40
2023-02-16T00:34:27.884Z,495.20
2023-02-16T00:35:06.865Z,544.70
2023-02-16T00:36:06.856Z,447.80
2023-02-16T00:37:06.842Z,428.20
2023-02-16T00:38:06.826Z,494.00
2023-02-16T00:39:06.809Z,455.90
2023-02-16T00:40:27.815Z,449.70
2023-02-16T00:41:06.786Z,493.10
2023-02-16T00:42:06.773Z,544.90
2023-02-16T00:43:06.760Z,492.90
2023-02-16T00:44:06.750Z,530.40
2023-02-16T00:45:06.730Z,442.80
2023-02-16T00:46:27.760Z,364.10
2023-02-16T00:47:06.707Z,483.00
2023-02-16T00:48:06.694Z,416.00
2023-02-16T00:49:06.680Z,618.70
2023-02-16T00:50:06.664Z,338.50
2023-02-16T00:51:17.007Z,531.70
2023-02-16T00:52:27.644Z,337.90
2023-02-16T00:53:06.629Z,366.40
2023-02-16T00:54:06.619Z,458.50
2023-02-16T00:55:06.605Z,465.20
2023-02-16T00:56:06.583Z,448.50
2023-02-16T00:57:06.576Z,356.10
2023-02-16T00:58:27.564Z,484.60
2023-02-16T00:59:06.546Z,550.90
2023-02-16T01:00:06.545Z,386.70
2023-02-16T01:01:06.732Z,538.50
2023-02-16T01:02:06.505Z,534.00
2023-02-16T01:03:06.500Z,500.10
2023-02-16T01:04:27.529Z,410.60
2023-02-16T01:05:06.469Z,355.20
2023-02-16T01:06:06.449Z,406.40
2023-02-16T01:07:06.446Z,393.00
2023-02-16T01:08:06.422Z,422.30
2023-02-16T01:09:06.436Z,332.70
2023-02-16T01:10:27.395Z,512.30
2023-02-16T01:11:06.589Z,382.60
2023-02-16T01:12:06.366Z,413.70
2023-02-16T01:13:06.379Z,348.10
2023-02-16T01:14:06.340Z,306.60
2023-02-16T01:15:06.329Z,566.10
2023-02-16T01:16:27.320Z,345.00
2023-02-16T01:17:06.303Z,349.20
2023-02-16T01:18:06.287Z,269.90
2023-02-16T01:19:06.278Z,439.80
2023-02-16T01:20:06.353Z,368.40
2023-02-16T01:21:06.245Z,331.90
2023-02-16T01:22:27.236Z,341.10
2023-02-16T01:23:06.224Z,277.30
2023-02-16T01:24:06.207Z,329.40
2023-02-16T01:25:06.195Z,333.50
2023-02-16T01:26:06.175Z,313.90
2023-02-16T01:27:06.166Z,308.80
2023-02-16T01:28:27.159Z,318.50
2023-02-16T01:29:06.140Z,297.90
2023-02-16T01:30:06.161Z,375.00
2023-02-16T01:31:06.422Z,391.40
2023-02-16T01:32:06.259Z,462.90
2023-02-16T01:33:06.095Z,348.50
2023-02-16T01:34:27.079Z,299.10
2023-02-16T01:35:06.060Z,255.60
2023-02-16T01:36:06.044Z,424.50
2023-02-16T01:37:06.092Z,247.60
2023-02-16T01:38:06.050Z,366.80
2023-02-16T01:39:06.007Z,342.10
2023-02-16T01:40:27.000Z,323.90
2023-02-16T01:41:06.204Z,291.70
2023-02-16T01:42:05.983Z,282.10
2023-02-16T01:43:05.958Z,306.90
2023-02-16T01:44:05.946Z,232.60
2023-02-16T01:45:05.933Z,301.20
2023-02-16T01:46:26.948Z,236.20
2023-02-16T01:47:05.901Z,256.40
2023-02-16T01:48:05.897Z,423.10
2023-02-16T01:49:05.882Z,315.40
2023-02-16T01:50:05.864Z,263.50
2023-02-16T01:51:05.880Z,312.90
2023-02-16T01:52:26.835Z,209.00
2023-02-16T01:53:05.819Z,211.40
2023-02-16T01:54:05.994Z,194.50
2023-02-16T01:55:05.796Z,261.50
2023-02-16T01:56:05.777Z,188.90
2023-02-16T01:57:05.772Z,257.40
2023-02-16T01:58:26.752Z,300.60
2023-02-16T01:59:05.738Z,248.30
2023-02-16T02:00:05.730Z,228.80
2023-02-16T02:01:05.939Z,231.20
2023-02-16T02:02:05.697Z,231.40
2023-02-16T02:03:05.749Z,218.30
2023-02-16T02:04:26.678Z,173.20
2023-02-16T02:05:05.663Z,175.70
2023-02-16T02:06:05.645Z,174.40
2023-02-16T02:07:05.635Z,180.10
2023-02-16T02:08:05.614Z,180.00
2023-02-16T02:09:05.602Z,156.50
2023-02-16T02:10:26.604Z,167.10
2023-02-16T02:11:05.828Z,156.30
2023-02-16T02:12:05.574Z,163.50
2023-02-16T02:13:05.581Z,154.00
2023-02-16T02:14:05.535Z,156.60
2023-02-16T02:15:05.530Z,166.50
2023-02-16T02:16:26.578Z,153.60
2023-02-16T02:17:05.502Z,143.30
2023-02-16T02:18:05.482Z,140.70
2023-02-16T02:19:05.475Z,137.50
2023-02-16T02:20:05.465Z,129.50
2023-02-16T02:21:05.773Z,127.80
2023-02-16T02:22:26.428Z,116.90
2023-02-16T02:23:05.448Z,121.80
2023-02-16T02:24:05.397Z,120.00
2023-02-16T02:25:05.393Z,120.40
2023-02-16T02:26:05.374Z,131.00
2023-02-16T02:27:05.366Z,129.30
2023-02-16T02:28:26.365Z,122.80
2023-02-16T02:29:05.337Z,120.20
2023-02-16T02:30:05.360Z,117.20
2023-02-16T02:31:05.715Z,105.00
2023-02-16T02:32:05.326Z,104.90
2023-02-16T02:33:05.284Z,100.40
2023-02-16T02:34:26.271Z,98.30
2023-02-16T02:35:05.251Z,93.50
2023-02-16T02:36:05.235Z,89.40
2023-02-16T02:37:05.229Z,91.10
2023-02-16T02:38:05.208Z,92.40
2023-02-16T02:39:05.197Z,88.60
2023-02-16T02:40:26.189Z,85.20
2023-02-16T02:41:06.420Z,82.30
2023-02-16T02:42:05.186Z,85.00
2023-02-16T02:43:05.144Z,84.20
2023-02-16T02:44:05.139Z,87.70
2023-02-16T02:45:05.129Z,93.20
2023-02-16T02:46:26.165Z,96.70
2023-02-16T02:47:05.216Z,99.20
2023-02-16T02:48:05.073Z,97.50
2023-02-16T02:49:05.071Z,99.00
2023-02-16T02:50:05.045Z,104.90
2023-02-16T02:51:05.307Z,96.30
2023-02-16T02:52:26.033Z,89.60
2023-02-16T02:53:05.009Z,91.20
2023-02-16T02:54:04.988Z,85.00
2023-02-16T02:55:04.983Z,86.50
2023-02-16T02:56:04.959Z,88.90
2023-02-16T02:57:04.955Z,89.80
2023-02-16T02:58:25.937Z,90.90
2023-02-16T02:59:04.929Z,93.80
2023-02-16T03:00:04.907Z,88.50
2023-02-16T03:01:05.405Z,82.90
2023-02-16T03:02:04.995Z,84.30
2023-02-16T03:03:04.877Z,80.40
2023-02-16T03:04:25.870Z,81.70
2023-02-16T03:05:04.845Z,78.40
2023-02-16T03:06:04.828Z,76.10
2023-02-16T03:07:04.811Z,78.50
2023-02-16T03:08:04.803Z,75.60
2023-02-16T03:09:04.787Z,72.10
2023-02-16T03:10:25.772Z,74.50
2023-02-16T03:11:05.024Z,72.70
2023-02-16T03:12:04.744Z,74.50
2023-02-16T03:13:04.729Z,76.90
2023-02-16T03:14:04.719Z,82.40
2023-02-16T03:15:04.702Z,80.70
2023-02-16T03:16:25.760Z,82.10
2023-02-16T03:17:04.676Z,84.90
2023-02-16T03:18:04.657Z,82.50
2023-02-16T03:19:04.653Z,80.50
2023-02-16T03:20:04.629Z,73.40
2023-02-16T03:21:04.882Z,72.60
2023-02-16T03:22:25.623Z,68.00
2023-02-16T03:23:04.602Z,65.50
2023-02-16T03:24:04.577Z,68.60
2023-02-16T03:25:04.562Z,68.80
2023-02-16T03:26:04.543Z,65.50
2023-02-16T03:27:04.533Z,70.30
2023-02-16T03:28:25.526Z,68.80
2023-02-16T03:29:04.511Z,65.60
2023-02-16T03:30:04.513Z,66.30
2023-02-16T03:31:04.871Z,64.50
2023-02-16T03:32:04.523Z,65.90
2023-02-16T03:33:04.448Z,67.80
2023-02-16T03:34:25.437Z,69.70
2023-02-16T03:35:04.420Z,65.50
2023-02-16T03:36:04.412Z,68.70
2023-02-16T03:37:04.392Z,70.90
2023-02-16T03:38:04.378Z,73.20
2023-02-16T03:39:04.369Z,70.70
2023-02-16T03:40:25.359Z,70.50
2023-02-16T03:41:04.583Z,70.40
2023-02-16T03:42:04.469Z,68.50
2023-02-16T03:43:04.307Z,70.40
2023-02-16T03:44:04.292Z,71.60
2023-02-16T03:45:04.279Z,73.80
2023-02-16T03:46:25.273Z,74.50
2023-02-16T03:47:04.252Z,72.70
2023-02-16T03:48:04.246Z,70.20
2023-02-16T03:49:04.226Z,70.40
2023-02-16T03:50:04.285Z,73.50
2023-02-16T03:51:04.522Z,74.40
2023-02-16T03:52:25.192Z,75.70
2023-02-16T03:53:04.167Z,72.40
2023-02-16T03:54:04.175Z,66.60
2023-02-16T03:55:04.146Z,66.20
2023-02-16T03:56:04.128Z,66.20
2023-02-16T03:57:04.128Z,66.00
2023-02-16T03:58:25.114Z,64.40
2023-02-16T03:59:04.083Z,66.50
2023-02-16T04:00:04.090Z,70.00
2023-02-16T04:01:04.281Z,67.90
2023-02-16T04:02:04.066Z,70.70
2023-02-16T04:03:04.044Z,64.80
2023-02-16T04:04:25.092Z,72.10
2023-02-16T04:05:04.006Z,64.60
2023-02-16T04:06:03.992Z,67.80
2023-02-16T04:07:03.977Z,72.50
2023-02-16T04:08:03.971Z,70.10
2023-02-16T04:09:03.954Z,72.30
2023-02-16T04:10:24.940Z,71.10
2023-02-16T04:11:04.194Z,75.20
2023-02-16T04:12:03.914Z,99.00
2023-02-16T04:13:03.901Z,91.00
2023-02-16T04:14:03.886Z,88.90
2023-02-16T04:15:03.911Z,85.00
2023-02-16T04:16:24.959Z,95.30
2023-02-16T04:17:03.854Z,85.20
2023-02-16T04:18:03.839Z,80.30
2023-02-16T04:19:03.808Z,81.40
2023-02-16T04:20:03.802Z,91.20
2023-02-16T04:21:04.103Z,97.90
2023-02-16T04:22:24.788Z,91.70
2023-02-16T04:23:03.767Z,97.80
2023-02-16T04:24:03.744Z,89.40
2023-02-16T04:25:03.730Z,88.70
2023-02-16T04:26:03.712Z,90.10
2023-02-16T04:27:03.705Z,86.40
2023-02-16T04:28:24.693Z,85.40
2023-02-16T04:29:03.678Z,87.50
2023-02-16T04:30:03.696Z,88.40
2023-02-16T04:31:04.045Z,84.50
2023-02-16T04:32:03.704Z,81.70
2023-02-16T04:33:03.619Z,80.00
2023-02-16T04:34:24.604Z,80.80
2023-02-16T04:35:03.588Z,88.00
2023-02-16T04:36:03.595Z,85.70
2023-02-16T04:37:03.564Z,85.40
2023-02-16T04:38:03.552Z,86.50
2023-02-16T04:39:03.537Z,87.30
2023-02-16T04:40:24.552Z,93.00
2023-02-16T04:41:03.793Z,95.30
2023-02-16T04:42:03.484Z,89.40
2023-02-16T04:43:03.480Z,87.70
2023-02-16T04:44:03.460Z,92.30
2023-02-16T04:45:03.449Z,99.60
2023-02-16T04:46:24.516Z,100.40
2023-02-16T04:47:03.422Z,104.90
2023-02-16T04:48:03.402Z,110.90
2023-02-16T04:49:03.400Z,103.70
2023-02-16T04:50:03.375Z,97.50
2023-02-16T04:51:03.461Z,100.80
2023-02-16T04:52:24.350Z,106.00
2023-02-16T04:53:03.333Z,109.60
2023-02-16T04:54:03.321Z,108.70
2023-02-16T04:55:03.332Z,114.10
2023-02-16T04:56:03.295Z,113.40
2023-02-16T04:57:03.286Z,119.10
2023-02-16T04:58:24.264Z,128.20
2023-02-16T04:59:03.251Z,121.80
2023-02-16T05:00:03.236Z,122.70
2023-02-16T05:01:03.900Z,130.60
2023-02-16T05:02:03.210Z,122.80
2023-02-16T05:03:03.209Z,125.50
2023-02-16T05:04:24.206Z,131.70
2023-02-16T05:05:03.176Z,128.40
2023-02-16T05:06:03.174Z,119.20
2023-02-16T05:07:03.143Z,117.80
2023-02-16T05:08:03.124Z,121.10
2023-02-16T05:09:03.110Z,118.00
2023-02-16T05:10:24.105Z,126.10
2023-02-16T05:11:03.346Z,122.60
2023-02-16T05:12:03.084Z,124.10
2023-02-16T05:13:03.054Z,126.00
2023-02-16T05:14:03.040Z,129.70
2023-02-16T05:15:03.030Z,131.40
2023-02-16T05:16:24.017Z,137.80
2023-02-16T05:17:02.998Z,131.10
2023-02-16T05:18:02.985Z,127.90
2023-02-16T05:19:02.973Z,121.60
2023-02-16T05:20:02.951Z,118.90
2023-02-16T05:21:03.240Z,120.00
2023-02-16T05:22:23.964Z,125.00
2023-02-16T05:23:02.914Z,125.80
2023-02-16T05:24:02.899Z,117.40
2023-02-16T05:25:02.898Z,123.40
2023-02-16T05:26:02.880Z,117.90
2023-02-16T05:27:02.858Z,119.60
2023-02-16T05:28:23.905Z,120.60
2023-02-16T05:29:02.837Z,126.80
2023-02-16T05:30:02.862Z,128.20
2023-02-16T05:31:03.198Z,128.00
2023-02-16T05:32:04.729Z,133.70
2023-02-16T05:33:02.777Z,131.70
2023-02-16T05:34:23.762Z,132.90
2023-02-16T05:35:02.747Z,133.10
2023-02-16T05:36:02.739Z,131.60
2023-02-16T05:37:02.728Z,126.70
2023-02-16T05:38:02.704Z,126.30
2023-02-16T05:39:02.691Z,127.20
2023-02-16T05:40:23.682Z,129.00
2023-02-16T05:41:02.879Z,134.10
2023-02-16T05:42:02.647Z,138.60
2023-02-16T05:43:02.644Z,128.20
2023-02-16T05:44:02.620Z,124.10
2023-02-16T05:45:02.623Z,130.80
2023-02-16T05:46:23.639Z,126.60
2023-02-16T05:47:02.582Z,130.40
2023-02-16T05:48:02.568Z,130.00
2023-02-16T05:49:02.554Z,143.50
2023-02-16T05:50:02.541Z,137.30
2023-02-16T05:51:02.944Z,136.40
2023-02-16T05:52:23.517Z,137.80
2023-02-16T05:53:02.500Z,139.50
2023-02-16T05:54:02.483Z,135.30
2023-02-16T05:55:02.476Z,133.40
2023-02-16T05:56:02.457Z,138.70
2023-02-16T05:57:02.445Z,136.70
2023-02-16T05:58:23.452Z,140.70
2023-02-16T05:59:02.426Z,135.50
2023-02-16T06:00:02.408Z,134.20
2023-02-16T06:01:02.587Z,140.40
2023-02-16T06:02:02.388Z,129.10
2023-02-16T06:03:02.363Z,139.40
2023-02-16T06:04:23.352Z,142.60
2023-02-16T06:05:02.342Z,134.60
2023-02-16T06:06:02.315Z,131.70
2023-02-16T06:07:02.315Z,125.00
2023-02-16T06:08:02.291Z,123.10
2023-02-16T06:09:02.286Z,135.70
2023-02-16T06:10:23.268Z,128.40
2023-02-16T06:11:02.883Z,125.60
2023-02-16T06:12:02.237Z,126.80
2023-02-16T06:13:02.221Z,128.10
2023-02-16T06:14:02.205Z,132.30
2023-02-16T06:15:02.208Z,127.20
2023-02-16T06:16:23.231Z,131.80
2023-02-16T06:17:02.165Z,120.40
2023-02-16T06:18:02.152Z,126.50
2023-02-16T06:19:02.153Z,119.60
2023-02-16T06:20:02.152Z,125.20
2023-02-16T06:21:02.317Z,123.70
2023-02-16T06:22:23.101Z,125.60
2023-02-16T06:23:02.083Z,129.60
2023-02-16T06:24:02.073Z,135.50
2023-02-16T06:25:02.055Z,135.00
2023-02-16T06:26:02.041Z,131.10
2023-02-16T06:27:02.029Z,137.10
2023-02-16T06:28:23.018Z,136.50
2023-02-16T06:29:02.005Z,124.80
2023-02-16T06:30:02.018Z,127.80
2023-02-16T06:31:02.421Z,125.50
2023-02-16T06:32:02.192Z,126.90
2023-02-16T06:33:01.944Z,126.90
2023-02-16T06:34:22.930Z,126.50
2023-02-16T06:35:01.917Z,124.30
2023-02-16T06:36:01.918Z,122.60
2023-02-16T06:37:01.882Z,128.40
2023-02-16T06:38:01.872Z,124.70
2023-02-16T06:39:01.859Z,119.30
2023-02-16T06:40:22.861Z,130.20
2023-02-16T06:41:02.013Z,115.70
2023-02-16T06:42:01.811Z,118.30
2023-02-16T06:43:01.806Z,123.60
2023-02-16T06:44:01.788Z,129.80
2023-02-16T06:45:01.774Z,124.10
2023-02-16T06:46:22.777Z,117.70
2023-02-16T06:47:01.749Z,114.90
2023-02-16T06:48:01.735Z,114.10
2023-02-16T06:49:01.719Z,121.90
2023-02-16T06:50:01.701Z,119.10
2023-02-16T06:51:02.049Z,118.30
2023-02-16T06:52:22.685Z,120.70
2023-02-16T06:53:01.666Z,117.00
2023-02-16T06:54:01.653Z,109.20
2023-02-16T06:55:01.627Z,110.70
2023-02-16T06:56:01.633Z,107.00
2023-02-16T06:57:01.612Z,106.80
2023-02-16T06:58:22.599Z,107.10
2023-02-16T06:59:01.604Z,101.20
2023-02-16T07:00:01.636Z,95.30
2023-02-16T07:01:01.671Z,98.60
2023-02-16T07:02:01.547Z,94.30
2023-02-16T07:03:01.542Z,88.90
2023-02-16T07:04:22.514Z,87.90
2023-02-16T07:05:01.489Z,87.60
2023-02-16T07:06:01.477Z,89.90
2023-02-16T07:07:01.462Z,87.70
2023-02-16T07:08:01.464Z,84.60
2023-02-16T07:09:01.449Z,80.40
2023-02-16T07:10:22.430Z,80.00
2023-02-16T07:11:01.407Z,78.70
2023-02-16T07:12:01.408Z,80.40
2023-02-16T07:13:01.391Z,78.80
2023-02-16T07:14:01.372Z,75.10
2023-02-16T07:15:01.360Z,78.60
2023-02-16T07:16:22.398Z,76.80
2023-02-16T07:17:01.328Z,74.20
2023-02-16T07:18:01.318Z,75.50
2023-02-16T07:19:01.309Z,74.10
2023-02-16T07:20:01.301Z,75.70
2023-02-16T07:21:01.342Z,71.00
2023-02-16T07:22:22.263Z,67.30
2023-02-16T07:23:01.242Z,69.00
2023-02-16T07:24:01.238Z,65.20
2023-02-16T07:25:01.216Z,65.60
2023-02-16T07:26:01.207Z,63.50
2023-02-16T07:27:01.192Z,64.40
2023-02-16T07:28:22.185Z,62.20
2023-02-16T07:29:01.167Z,64.20
2023-02-16T07:30:01.192Z,60.70
2023-02-16T07:31:01.164Z,60.90
2023-02-16T07:32:01.230Z,62.70
2023-02-16T07:33:01.116Z,61.40
2023-02-16T07:34:22.206Z,63.20
2023-02-16T07:35:01.089Z,61.80
2023-02-16T07:36:01.080Z,59.40
2023-02-16T07:37:01.061Z,57.10
2023-02-16T07:38:01.045Z,59.60
2023-02-16T07:39:01.040Z,57.00
2023-02-16T07:40:22.032Z,57.80
2023-02-16T07:41:01.004Z,52.70
2023-02-16T07:42:00.989Z,53.60
2023-02-16T07:43:00.998Z,51.60
2023-02-16T07:44:00.964Z,51.80
2023-02-16T07:45:00.945Z,52.40
2023-02-16T07:46:22.030Z,48.80
2023-02-16T07:47:00.937Z,46.30
2023-02-16T07:48:00.919Z,48.10
2023-02-16T07:49:00.890Z,45.40
2023-02-16T07:50:00.888Z,49.00
2023-02-16T07:51:00.862Z,46.00
2023-02-16T07:52:21.866Z,44.80
2023-02-16T07:53:00.839Z,46.50
2023-02-16T07:54:00.843Z,44.60
2023-02-16T07:55:00.824Z,47.90
2023-02-16T07:56:00.810Z,49.50
2023-02-16T07:57:00.786Z,47.10
2023-02-16T07:58:21.796Z,46.60
2023-02-16T07:59:00.763Z,46.40
2023-02-16T08:00:00.752Z,44.40
2023-02-16T08:01:00.742Z,46.00
2023-02-16T08:02:00.839Z,46.30
2023-02-16T08:03:01.098Z,44.00
2023-02-16T08:04:21.706Z,46.60
2023-02-16T08:05:00.685Z,42.90
2023-02-16T08:06:00.677Z,43.80
2023-02-16T08:07:00.656Z,42.00
2023-02-16T08:08:00.649Z,40.60
2023-02-16T08:09:00.643Z,40.70
2023-02-16T08:10:21.632Z,43.30
2023-02-16T08:11:00.608Z,44.90
2023-02-16T08:12:00.596Z,43.50
2023-02-16T08:13:00.582Z,41.50
2023-02-16T08:14:00.572Z,44.40
2023-02-16T08:15:00.570Z,42.70
2023-02-16T08:16:21.653Z,44.40
2023-02-16T08:17:00.552Z,43.90
2023-02-16T08:18:00.521Z,44.20
2023-02-16T08:19:00.507Z,45.10
2023-02-16T08:20:00.513Z,44.20
2023-02-16T08:21:04.444Z,44.10
2023-02-16T08:22:21.483Z,46.70
2023-02-16T08:23:00.465Z,51.00
2023-02-16T08:24:00.448Z,46.70
2023-02-16T08:25:00.435Z,44.70
2023-02-16T08:26:00.458Z,44.70
2023-02-16T08:27:00.410Z,44.10
2023-02-16T08:28:21.405Z,46.90
2023-02-16T08:29:00.385Z,44.20
2023-02-16T08:30:00.390Z,42.20
2023-02-16T08:31:00.370Z,45.70
2023-02-16T08:32:00.436Z,41.70
2023-02-16T08:33:00.332Z,41.10
2023-02-16T08:34:21.325Z,44.90
2023-02-16T08:35:00.313Z,39.30
2023-02-16T08:36:00.295Z,41.10
2023-02-16T08:37:00.284Z,40.00
2023-02-16T08:38:00.267Z,39.80
2023-02-16T08:39:00.260Z,38.70
2023-02-16T08:40:21.249Z,40.90
2023-02-16T08:41:00.237Z,39.50
2023-02-16T08:42:00.219Z,40.40
2023-02-16T08:43:00.212Z,39.30
2023-02-16T08:44:00.205Z,39.80
2023-02-16T08:45:00.198Z,41.60
2023-02-16T08:46:21.224Z,42.00
2023-02-16T08:47:00.204Z,42.60
2023-02-16T08:48:00.164Z,41.90
2023-02-16T08:49:00.184Z,39.30
2023-02-16T08:50:00.137Z,37.50
2023-02-16T08:51:00.108Z,40.40
2023-02-16T08:52:21.094Z,43.20
2023-02-16T08:53:00.091Z,42.30
2023-02-16T08:54:00.153Z,38.80
2023-02-16T08:55:00.073Z,40.90
2023-02-16T08:56:00.039Z,38.20
2023-02-16T08:57:00.048Z,41.20
2023-02-16T08:58:21.021Z,41.90
2023-02-16T08:59:00.000Z,40.60
2023-02-16T08:59:59.989Z,39.40
2023-02-16T09:01:00.003Z,37.70
2023-02-16T09:02:00.090Z,38.70
2023-02-16T09:02:59.956Z,37.00
2023-02-16T09:04:20.945Z,41.00
2023-02-16T09:04:59.931Z,37.90
2023-02-16T09:05:59.999Z,34.70
2023-02-16T09:06:59.917Z,38.00
2023-02-16T09:07:59.894Z,39.00
2023-02-16T09:08:59.895Z,37.40
2023-02-16T09:10:21.315Z,37.40
2023-02-16T09:10:59.858Z,35.90
2023-02-16T09:11:59.851Z,38.10
2023-02-16T09:12:59.833Z,39.90
2023-02-16T09:13:59.916Z,38.60
2023-02-16T09:14:59.812Z,36.60
2023-02-16T09:16:20.915Z,40.10
2023-02-16T09:16:59.847Z,38.50
2023-02-16T09:17:59.767Z,36.90
2023-02-16T09:18:59.779Z,37.20
2023-02-16T09:19:59.751Z,37.50
2023-02-16T09:20:59.737Z,38.40
2023-02-16T09:22:20.734Z,37.40
2023-02-16T09:22:59.717Z,39.30
2023-02-16T09:23:59.709Z,37.00
2023-02-16T09:24:59.691Z,38.00
2023-02-16T09:25:59.672Z,38.50
2023-02-16T09:26:59.669Z,41.80
2023-02-16T09:28:20.662Z,37.70
2023-02-16T09:28:59.647Z,37.80
2023-02-16T09:29:59.663Z,38.00
2023-02-16T09:30:59.681Z,36.60
2023-02-16T09:31:59.632Z,38.30
2023-02-16T09:32:59.598Z,37.80
2023-02-16T09:34:20.596Z,39.00
2023-02-16T09:34:59.571Z,38.30
2023-02-16T09:35:59.561Z,38.70
2023-02-16T09:36:59.552Z,38.10
2023-02-16T09:37:59.534Z,36.80
2023-02-16T09:38:59.569Z,38.40
2023-02-16T09:40:20.524Z,38.10
2023-02-16T09:40:59.521Z,38.50
2023-02-16T09:41:59.590Z,36.90
2023-02-16T09:42:59.477Z,43.30
2023-02-16T09:43:59.466Z,40.00
2023-02-16T09:44:59.452Z,41.20
2023-02-16T09:46:22.310Z,42.80
2023-02-16T09:46:59.431Z,38.20
2023-02-16T09:47:59.422Z,40.80
2023-02-16T09:48:59.406Z,42.00
2023-02-16T09:49:59.407Z,41.70
2023-02-16T09:50:59.382Z,42.20
2023-02-16T09:52:20.384Z,42.70
2023-02-16T09:52:59.364Z,41.90
2023-02-16T09:53:59.349Z,42.20
2023-02-16T09:54:59.336Z,44.50
2023-02-16T09:55:59.330Z,43.70
2023-02-16T09:56:59.315Z,44.00
2023-02-16T09:58:20.319Z,41.40
2023-02-16T09:58:59.293Z,43.00
2023-02-16T09:59:59.285Z,42.20
2023-02-16T10:00:59.296Z,40.40
2023-02-16T10:01:59.256Z,39.90
2023-02-16T10:02:59.257Z,41.60
2023-02-16T10:04:20.246Z,41.70
2023-02-16T10:04:59.229Z,41.60
2023-02-16T10:05:59.218Z,39.80
2023-02-16T10:06:59.204Z,38.70
2023-02-16T10:07:59.193Z,38.90
2023-02-16T10:08:59.176Z,37.30
2023-02-16T10:10:20.297Z,39.70
2023-02-16T10:10:59.163Z,39.60
2023-02-16T10:11:59.152Z,38.40
2023-02-16T10:12:59.136Z,39.40
2023-02-16T10:13:59.127Z,41.00
2023-02-16T10:14:59.133Z,37.70
2023-02-16T10:16:20.112Z,37.60
2023-02-16T10:16:59.093Z,35.20
2023-02-16T10:17:59.085Z,36.30
2023-02-16T10:18:59.077Z,37.40
2023-02-16T10:19:59.065Z,37.90
2023-02-16T10:20:59.046Z,37.00
2023-02-16T10:22:20.050Z,36.00
2023-02-16T10:22:59.052Z,37.70
2023-02-16T10:23:59.016Z,38.70
2023-02-16T10:24:59.005Z,37.80
2023-02-16T10:25:59.005Z,36.00
2023-02-16T10:26:58.992Z,37.10
2023-02-16T10:28:22.467Z,37.10
2023-02-16T10:28:58.965Z,37.10
2023-02-16T10:29:58.991Z,36.80
2023-02-16T10:30:58.987Z,38.00
2023-02-16T10:31:59.057Z,39.60
2023-02-16T10:32:58.920Z,33.80
2023-02-16T10:34:22.567Z,39.70
2023-02-16T10:34:58.921Z,37.70
2023-02-16T10:35:58.891Z,36.80
2023-02-16T10:36:58.999Z,37.10
2023-02-16T10:37:58.874Z,38.00
2023-02-16T10:38:58.862Z,42.80
2023-02-16T10:40:22.868Z,36.10
2023-02-16T10:40:58.844Z,36.00
2023-02-16T10:41:58.931Z,35.90
2023-02-16T10:42:58.833Z,36.20
2023-02-16T10:43:58.813Z,35.40
2023-02-16T10:44:58.800Z,37.80
2023-02-16T10:46:19.843Z,36.60
2023-02-16T10:46:58.776Z,35.60
2023-02-16T10:47:58.786Z,35.80
2023-02-16T10:48:58.766Z,34.20
2023-02-16T10:49:58.757Z,34.60
2023-02-16T10:50:58.742Z,35.30
2023-02-16T10:52:19.738Z,36.50
2023-02-16T10:52:58.720Z,35.80
2023-02-16T10:53:58.711Z,36.80
2023-02-16T10:54:58.720Z,37.60
2023-02-16T10:55:58.699Z,37.50
2023-02-16T10:56:58.684Z,36.60
2023-02-16T10:58:21.703Z,35.00
2023-02-16T10:58:58.659Z,36.40
2023-02-16T10:59:58.651Z,34.50
2023-02-16T11:00:58.640Z,36.40
2023-02-16T11:01:58.631Z,37.20
2023-02-16T11:02:58.619Z,34.90
2023-02-16T11:04:21.974Z,34.90
2023-02-16T11:04:58.602Z,36.50
2023-02-16T11:05:58.593Z,36.10
2023-02-16T11:06:58.580Z,35.20
2023-02-16T11:07:58.574Z,38.10
2023-02-16T11:08:58.652Z,35.60
2023-02-16T11:10:19.574Z,34.50
2023-02-16T11:10:58.545Z,35.00
2023-02-16T11:11:58.535Z,37.50
2023-02-16T11:12:58.529Z,37.50
2023-02-16T11:13:58.513Z,36.70
2023-02-16T11:14:58.512Z,36.40
2023-02-16T11:16:19.611Z,35.60
2023-02-16T11:16:58.489Z,36.10
2023-02-16T11:17:58.475Z,37.20
2023-02-16T11:18:58.464Z,36.30
2023-02-16T11:20:01.650Z,36.50
2023-02-16T11:20:58.444Z,36.30
2023-02-16T11:22:19.448Z,34.60
2023-02-16T11:22:58.427Z,35.00
2023-02-16T11:23:58.420Z,36.10
2023-02-16T11:24:58.411Z,37.00
2023-02-16T11:25:58.399Z,37.10
2023-02-16T11:26:58.532Z,33.60
2023-02-16T11:28:19.389Z,34.40
2023-02-16T11:28:58.371Z,34.80
2023-02-16T11:29:58.382Z,35.90
2023-02-16T11:30:58.420Z,34.70
2023-02-16T11:31:58.467Z,36.40
2023-02-16T11:32:58.336Z,35.30
2023-02-16T11:34:19.329Z,34.90
2023-02-16T11:34:58.314Z,38.00
2023-02-16T11:35:58.314Z,35.30
2023-02-16T11:36:58.297Z,37.50
2023-02-16T11:37:58.285Z,39.10
2023-02-16T11:38:58.274Z,35.00
2023-02-16T11:40:19.284Z,37.20
2023-02-16T11:40:58.261Z,37.90
2023-02-16T11:41:58.248Z,35.70
2023-02-16T11:42:58.234Z,36.10
2023-02-16T11:43:58.224Z,35.90
2023-02-16T11:44:58.214Z,35.70
2023-02-16T11:46:19.267Z,34.50
2023-02-16T11:46:58.188Z,35.90
2023-02-16T11:47:58.184Z,35.40
2023-02-16T11:48:58.175Z,35.20
2023-02-16T11:49:58.161Z,36.40
2023-02-16T11:50:58.164Z,35.40
2023-02-16T11:52:19.148Z,37.70
2023-02-16T11:52:58.134Z,36.30
2023-02-16T11:53:58.129Z,36.70
2023-02-16T11:54:58.115Z,36.20
2023-02-16T11:55:58.109Z,34.40
2023-02-16T11:56:58.099Z,33.80
2023-02-16T11:58:19.101Z,33.70
2023-02-16T11:58:58.079Z,33.80
2023-02-16T11:59:58.071Z,35.90
2023-02-16T12:00:58.055Z,35.50
2023-02-16T12:01:58.051Z,35.00
2023-02-16T12:02:58.041Z,34.90
2023-02-16T12:04:19.040Z,34.50
2023-02-16T12:04:58.094Z,34.40
2023-02-16T12:05:58.016Z,33.20
2023-02-16T12:06:58.008Z,35.80
2023-02-16T12:07:57.997Z,34.50
2023-02-16T12:08:57.990Z,35.60
2023-02-16T12:10:18.986Z,33.40
2023-02-16T12:10:57.968Z,35.90
2023-02-16T12:11:58.005Z,34.60
2023-02-16T12:12:57.948Z,36.60
2023-02-16T12:13:58.051Z,35.60
2023-02-16T12:14:57.931Z,37.20
2023-02-16T12:16:19.003Z,34.40
2023-02-16T12:16:57.917Z,35.00
2023-02-16T12:17:57.909Z,34.10
2023-02-16T12:18:57.902Z,36.20
2023-02-16T12:19:57.892Z,35.70
2023-02-16T12:20:57.876Z,35.80
2023-02-16T12:22:18.876Z,34.60
2023-02-16T12:22:57.862Z,36.70
2023-02-16T12:23:57.855Z,34.30
2023-02-16T12:24:57.853Z,34.40
2023-02-16T12:25:57.849Z,37.80
2023-02-16T12:26:57.825Z,35.10
2023-02-16T12:28:18.818Z,33.80
2023-02-16T12:28:57.804Z,35.00
2023-02-16T12:29:57.816Z,31.70
2023-02-16T12:30:57.842Z,34.30
2023-02-16T12:31:57.825Z,31.50
2023-02-16T12:32:57.818Z,34.10
2023-02-16T12:34:18.790Z,34.90
2023-02-16T12:34:57.755Z,34.10
2023-02-16T12:35:57.759Z,32.80
2023-02-16T12:36:57.746Z,32.50
2023-02-16T12:37:57.733Z,34.80
2023-02-16T12:38:57.714Z,31.60
2023-02-16T12:40:18.718Z,35.50
2023-02-16T12:40:58.543Z,32.40
2023-02-16T12:41:57.694Z,34.70
2023-02-16T12:42:57.680Z,35.20